createdAt,value
2017-05-03T00:00:09.453Z,88.78
2017-05-03T00:00:35.582Z,88.88
2017-05-03T00:01:01.719Z,88.21
2017-05-03T00:01:28.419Z,87.74
2017-05-03T00:01:54.546Z,87.69
2017-05-03T00:02:20.678Z,87.54
2017-05-03T00:02:46.792Z,87.64
2017-05-03T00:03:12.935Z,88.02
2017-05-03T00:03:39.069Z,87.93
2017-05-03T00:04:05.184Z,87.5
2017-05-03T00:04:31.300Z,87.69
2017-05-03T00:04:57.488Z,87.79
2017-05-03T00:05:23.985Z,87.79
2017-05-03T00:05:50.024Z,88.07
2017-05-03T00:06:16.113Z,88.07
2017-05-03T00:06:42.210Z,88.07
2017-05-03T00:07:08.344Z,88.12
2017-05-03T00:07:34.434Z,88.02
2017-05-03T00:08:00.575Z,88.17
2017-05-03T00:08:26.709Z,88.12
2017-05-03T00:08:52.829Z,88.12
2017-05-03T00:09:18.943Z,87.93
2017-05-03T00:09:45.447Z,87.88
2017-05-03T00:10:11.573Z,88.21
2017-05-03T00:10:37.687Z,88.69
2017-05-03T00:11:04.452Z,88.12
2017-05-03T00:11:30.571Z,88.12
2017-05-03T00:11:56.674Z,88.5
2017-05-03T00:12:22.770Z,87.98
2017-05-03T00:12:48.859Z,88.12
2017-05-03T00:13:15.021Z,88.26
2017-05-03T00:13:41.148Z,88.84
2017-05-03T00:14:07.292Z,87.98
2017-05-03T00:14:33.472Z,87.88
2017-05-03T00:15:00.362Z,88.84
2017-05-03T00:15:26.386Z,88.5
2017-05-03T00:15:52.483Z,88.45
2017-05-03T00:16:18.589Z,88.74
2017-05-03T00:16:44.731Z,88.45
2017-05-03T00:17:10.834Z,88.74
2017-05-03T00:17:36.924Z,88.74
2017-05-03T00:18:03.133Z,89.12
2017-05-03T00:18:29.650Z,89.31
2017-05-03T00:18:55.765Z,89.12
2017-05-03T00:19:22.470Z,89.22
2017-05-03T00:19:48.573Z,89.5
2017-05-03T00:20:14.688Z,89.69
2017-05-03T00:20:40.784Z,89.31
2017-05-03T00:21:06.915Z,89.4
2017-05-03T00:21:33.034Z,89.69
2017-05-03T00:21:59.124Z,89.22
2017-05-03T00:22:25.231Z,88.84
2017-05-03T00:22:51.650Z,88.84
2017-05-03T00:23:17.740Z,88.55
2017-05-03T00:23:43.846Z,88.74
2017-05-03T00:24:09.975Z,89.22
2017-05-03T00:24:36.060Z,89.5
2017-05-03T00:25:02.191Z,89.6
2017-05-03T00:25:28.295Z,90.17
2017-05-03T00:25:54.493Z,89.6
2017-05-03T00:26:20.593Z,89.89
2017-05-03T00:26:46.755Z,90.26
2017-05-03T00:27:12.871Z,89.6
2017-05-03T00:27:38.964Z,89.6
2017-05-03T00:28:05.088Z,89.22
2017-05-03T00:28:31.218Z,89.03
2017-05-03T00:28:57.739Z,89.69
2017-05-03T00:29:23.813Z,89.79
2017-05-03T00:29:49.982Z,89.69
2017-05-03T00:30:16.118Z,89.6
2017-05-03T00:30:42.207Z,89.5
2017-05-03T00:31:08.301Z,89.6
2017-05-03T00:31:34.406Z,89.22
2017-05-03T00:32:00.497Z,89.5
2017-05-03T00:32:27.234Z,89.22
2017-05-03T00:32:53.368Z,89.12
2017-05-03T00:33:19.462Z,89.69
2017-05-03T00:33:45.618Z,89.79
2017-05-03T00:34:11.708Z,89.22
2017-05-03T00:34:37.830Z,89.03
2017-05-03T00:35:03.936Z,88.69
2017-05-03T00:35:30.741Z,88.74
2017-05-03T00:35:56.855Z,89.03
2017-05-03T00:36:23.014Z,88.59
2017-05-03T00:36:49.135Z,88.74
2017-05-03T00:37:15.223Z,88.93
2017-05-03T00:37:41.721Z,88.5
2017-05-03T00:38:07.846Z,88.88
2017-05-03T00:38:33.959Z,88.02
2017-05-03T00:39:00.870Z,87.74
2017-05-03T00:39:27.004Z,87.93
2017-05-03T00:39:53.113Z,87.54
2017-05-03T00:40:19.288Z,87.93
2017-05-03T00:40:45.405Z,87.45
2017-05-03T00:41:11.868Z,87.07
2017-05-03T00:41:37.966Z,87.26
2017-05-03T00:42:04.053Z,87.54
2017-05-03T00:42:30.182Z,87.45
2017-05-03T00:42:56.347Z,87.54
2017-05-03T00:43:22.521Z,87.54
2017-05-03T00:43:48.684Z,87.93
2017-05-03T00:44:15.873Z,87.54
2017-05-03T00:44:41.962Z,87.64
2017-05-03T00:45:08.058Z,87.45
2017-05-03T00:45:34.162Z,87.54
2017-05-03T00:46:00.254Z,87.5
2017-05-03T00:46:26.682Z,87.6
2017-05-03T00:46:52.817Z,87.69
2017-05-03T00:47:18.917Z,87.88
2017-05-03T00:47:45.001Z,87.79
2017-05-03T00:48:11.109Z,88.17
2017-05-03T00:48:37.316Z,87.69
2017-05-03T00:49:03.478Z,87.88
2017-05-03T00:49:30.349Z,87.79
2017-05-03T00:49:56.450Z,88.21
2017-05-03T00:50:22.545Z,88.21
2017-05-03T00:50:48.668Z,88.12
2017-05-03T00:51:14.781Z,87.93
2017-05-03T00:51:41.089Z,87.83
2017-05-03T00:52:07.154Z,87.54
2017-05-03T00:52:33.246Z,87.83
2017-05-03T00:52:59.399Z,87.83
2017-05-03T00:53:25.505Z,87.64
2017-05-03T00:53:52.029Z,87.45
2017-05-03T00:54:18.068Z,87.54
2017-05-03T00:54:44.194Z,87.74
2017-05-03T00:55:10.334Z,87.64
2017-05-03T00:55:36.454Z,87.54
2017-05-03T00:56:03.012Z,87.54
2017-05-03T00:56:29.079Z,87.74
2017-05-03T00:56:55.185Z,87.54
2017-05-03T00:57:21.327Z,87.35
2017-05-03T00:57:47.421Z,87.45
2017-05-03T00:58:13.558Z,87.31
2017-05-03T00:58:39.671Z,87.45
2017-05-03T00:59:05.765Z,87.21
2017-05-03T00:59:31.899Z,87.74
2017-05-03T00:59:58.044Z,88.21
2017-05-03T01:00:24.269Z,88.31
2017-05-03T01:00:50.342Z,88.02
2017-05-03T01:01:16.434Z,88.26
2017-05-03T01:01:42.537Z,87.54
2017-05-03T01:02:08.673Z,87.45
2017-05-03T01:02:35.227Z,87.83
2017-05-03T01:03:01.300Z,87.54
2017-05-03T01:03:27.394Z,88.12
2017-05-03T01:03:53.536Z,88.02
2017-05-03T01:04:19.672Z,87.74
2017-05-03T01:04:46.231Z,87.5
2017-05-03T01:05:12.305Z,87.54
2017-05-03T01:05:38.437Z,87.54
2017-05-03T01:06:04.562Z,87.69
2017-05-03T01:06:30.650Z,87.64
2017-05-03T01:06:57.184Z,87.83
2017-05-03T01:07:23.229Z,87.45
2017-05-03T01:07:49.362Z,87.35
2017-05-03T01:08:15.514Z,87.16
2017-05-03T01:08:41.701Z,87.02
2017-05-03T01:09:07.794Z,87.4
2017-05-03T01:09:33.934Z,87.5
2017-05-03T01:10:00.065Z,88.26
2017-05-03T01:10:26.497Z,88.07
2017-05-03T01:10:52.612Z,87.93
2017-05-03T01:11:18.746Z,87.64
2017-05-03T01:11:44.840Z,87.64
2017-05-03T01:12:10.931Z,87.74
2017-05-03T01:12:37.330Z,86.98
2017-05-03T01:13:03.501Z,87.26
2017-05-03T01:13:29.692Z,87.69
2017-05-03T01:13:55.843Z,87.6
2017-05-03T01:14:21.979Z,87.69
2017-05-03T01:14:48.951Z,87.5
2017-05-03T01:15:15.074Z,88.02
2017-05-03T01:15:41.189Z,88.12
2017-05-03T01:16:07.346Z,88.02
2017-05-03T01:16:33.502Z,87.54
2017-05-03T01:16:59.639Z,87.64
2017-05-03T01:17:25.744Z,87.64
2017-05-03T01:17:52.376Z,87.74
2017-05-03T01:18:18.458Z,87.83
2017-05-03T01:18:44.582Z,87.74
2017-05-03T01:19:10.695Z,87.54
2017-05-03T01:19:36.853Z,87.74
2017-05-03T01:20:03.358Z,87.74
2017-05-03T01:20:29.384Z,87.45
2017-05-03T01:20:55.514Z,87.35
2017-05-03T01:21:21.623Z,87.16
2017-05-03T01:21:47.705Z,86.49
2017-05-03T01:22:14.837Z,86.59
2017-05-03T01:22:40.880Z,86.88
2017-05-03T01:23:06.969Z,87.07
2017-05-03T01:23:33.113Z,87.26
2017-05-03T01:23:59.261Z,86.78
2017-05-03T01:24:25.440Z,86.98
2017-05-03T01:24:51.544Z,86.49
2017-05-03T01:25:17.655Z,86.78
2017-05-03T01:25:44.100Z,87.16
2017-05-03T01:26:10.211Z,86.69
2017-05-03T01:26:36.319Z,87.12
2017-05-03T01:27:02.489Z,86.49
2017-05-03T01:27:28.593Z,87.4
2017-05-03T01:27:54.685Z,87.64
2017-05-03T01:28:20.826Z,87.54
2017-05-03T01:28:46.990Z,87.69
2017-05-03T01:29:13.537Z,87.5
2017-05-03T01:29:39.713Z,87.79
2017-05-03T01:30:05.803Z,87.5
2017-05-03T01:30:31.899Z,87.5
2017-05-03T01:30:58.003Z,88.07
2017-05-03T01:31:24.679Z,87.88
2017-05-03T01:31:50.768Z,88.26
2017-05-03T01:32:16.872Z,88.07
2017-05-03T01:32:42.968Z,88.74
2017-05-03T01:33:09.112Z,88.45
2017-05-03T01:33:35.291Z,88.17
2017-05-03T01:34:01.472Z,87.98
2017-05-03T01:34:28.136Z,88.07
2017-05-03T01:34:54.236Z,88.84
2017-05-03T01:35:20.327Z,88.64
2017-05-03T01:35:46.435Z,88.74
2017-05-03T01:36:12.557Z,88.55
2017-05-03T01:36:38.697Z,88.84
2017-05-03T01:37:04.829Z,88.55
2017-05-03T01:37:30.926Z,88.69
2017-05-03T01:37:57.602Z,88.55
2017-05-03T01:38:23.670Z,88.64
2017-05-03T01:38:50.003Z,88.17
2017-05-03T01:39:16.054Z,87.6
2017-05-03T01:39:42.178Z,87.98
2017-05-03T01:40:08.307Z,87.98
2017-05-03T01:40:34.398Z,87.6
2017-05-03T01:41:00.530Z,88.07
2017-05-03T01:41:26.643Z,87.88
2017-05-03T01:41:52.769Z,87.88
2017-05-03T01:42:19.213Z,88.84
2017-05-03T01:42:45.324Z,88.64
2017-05-03T01:43:11.444Z,88.74
2017-05-03T01:43:37.577Z,88.93
2017-05-03T01:44:03.716Z,89.03
2017-05-03T01:44:29.859Z,89.03
2017-05-03T01:44:56.025Z,88.84
2017-05-03T01:45:22.143Z,89.22
2017-05-03T01:45:48.372Z,88.74
2017-05-03T01:46:14.508Z,89.12
2017-05-03T01:46:40.974Z,88.36
2017-05-03T01:47:07.139Z,88.55
2017-05-03T01:47:33.227Z,89.12
2017-05-03T01:47:59.399Z,88.74
2017-05-03T01:48:25.558Z,88.74
2017-05-03T01:48:51.704Z,88.64
2017-05-03T01:49:17.845Z,88.64
2017-05-03T01:49:44.004Z,88.93
2017-05-03T01:50:10.502Z,88.84
2017-05-03T01:50:36.644Z,88.93
2017-05-03T01:51:02.835Z,89.03
2017-05-03T01:51:28.901Z,89.03
2017-05-03T01:51:55.013Z,88.74
2017-05-03T01:52:21.113Z,89.03
2017-05-03T01:52:47.217Z,88.84
2017-05-03T01:53:13.306Z,89.31
2017-05-03T01:53:39.459Z,89.03
2017-05-03T01:54:05.592Z,89.22
2017-05-03T01:54:32.268Z,89.6
2017-05-03T01:54:58.390Z,89.26
2017-05-03T01:55:24.522Z,90.08
2017-05-03T01:55:51.028Z,89.79
2017-05-03T01:56:17.142Z,89.89
2017-05-03T01:56:43.279Z,90.17
2017-05-03T01:57:09.374Z,90.03
2017-05-03T01:57:35.475Z,89.84
2017-05-03T01:58:01.588Z,89.46
2017-05-03T01:58:27.685Z,89.46
2017-05-03T01:58:54.715Z,89.55
2017-05-03T01:59:20.831Z,90.41
2017-05-03T01:59:46.921Z,90.12
2017-05-03T02:00:13.424Z,90.12
2017-05-03T02:00:39.547Z,89.94
2017-05-03T02:01:05.787Z,89.84
2017-05-03T02:01:31.827Z,89.84
2017-05-03T02:01:57.924Z,89.55
2017-05-03T02:02:24.064Z,89.94
2017-05-03T02:02:50.192Z,89.75
2017-05-03T02:03:16.305Z,90.22
2017-05-03T02:03:42.467Z,90.22
2017-05-03T02:04:08.616Z,89.94
2017-05-03T02:04:34.756Z,90.5
2017-05-03T02:05:00.863Z,90.7
2017-05-03T02:05:26.961Z,90.41
2017-05-03T02:05:53.433Z,90.5
2017-05-03T02:06:19.564Z,90.79
2017-05-03T02:06:46.044Z,90.6
2017-05-03T02:07:12.152Z,90.6
2017-05-03T02:07:38.247Z,90.5
2017-05-03T02:08:04.435Z,90.79
2017-05-03T02:08:30.549Z,90.41
2017-05-03T02:08:56.736Z,90.12
2017-05-03T02:09:22.824Z,90.12
2017-05-03T02:09:48.950Z,90.31
2017-05-03T02:10:15.081Z,90.22
2017-05-03T02:10:41.214Z,90.5
2017-05-03T02:11:07.338Z,90.6
2017-05-03T02:11:33.470Z,90.6
2017-05-03T02:11:59.581Z,90.6
2017-05-03T02:12:25.684Z,90.41
2017-05-03T02:12:51.842Z,90.7
2017-05-03T02:13:17.933Z,90.98
2017-05-03T02:13:45.290Z,90.7
2017-05-03T02:14:11.391Z,90.6
2017-05-03T02:14:37.945Z,90.22
2017-05-03T02:15:04.105Z,90.5
2017-05-03T02:15:30.193Z,90.41
2017-05-03T02:15:56.294Z,90.5
2017-05-03T02:16:22.396Z,90.5
2017-05-03T02:16:48.490Z,90.5
2017-05-03T02:17:14.580Z,90.31
2017-05-03T02:17:40.712Z,90.7
2017-05-03T02:18:06.838Z,90.6
2017-05-03T02:18:32.951Z,90.7
2017-05-03T02:18:59.134Z,90.6
2017-05-03T02:19:25.260Z,90.6
2017-05-03T02:19:51.412Z,90.6
2017-05-03T02:20:17.505Z,90.7
2017-05-03T02:20:43.667Z,90.5
2017-05-03T02:21:09.775Z,90.7
2017-05-03T02:21:35.871Z,90.31
2017-05-03T02:22:01.962Z,90.7
2017-05-03T02:22:28.093Z,90.5
2017-05-03T02:22:54.191Z,90.41
2017-05-03T02:23:20.306Z,90.6
2017-05-03T02:23:46.488Z,90.6
2017-05-03T02:24:12.619Z,90.6
2017-05-03T02:24:38.731Z,90.5
2017-05-03T02:25:04.831Z,90.5
2017-05-03T02:25:30.944Z,90.6
2017-05-03T02:25:57.077Z,90.7
2017-05-03T02:26:23.202Z,90.98
2017-05-03T02:26:49.292Z,91.17
2017-05-03T02:27:15.421Z,91.17
2017-05-03T02:27:41.581Z,90.89
2017-05-03T02:28:07.691Z,91.36
2017-05-03T02:28:33.814Z,90.79
2017-05-03T02:28:59.952Z,91.08
2017-05-03T02:29:26.509Z,90.89
2017-05-03T02:29:52.654Z,91.08
2017-05-03T02:30:19.325Z,90.79
2017-05-03T02:30:45.354Z,91.27
2017-05-03T02:31:11.461Z,91.08
2017-05-03T02:31:37.972Z,91.08
2017-05-03T02:32:04.096Z,90.89
2017-05-03T02:32:30.282Z,91.08
2017-05-03T02:32:56.828Z,91.27
2017-05-03T02:33:22.971Z,91.08
2017-05-03T02:33:49.534Z,91.03
2017-05-03T02:34:15.645Z,90.45
2017-05-03T02:34:41.757Z,90.6
2017-05-03T02:35:07.962Z,90.64
2017-05-03T02:35:34.056Z,90.7
2017-05-03T02:36:00.640Z,90.7
2017-05-03T02:36:26.683Z,90.41
2017-05-03T02:36:52.805Z,90.84
2017-05-03T02:37:19.326Z,90.7
2017-05-03T02:37:45.457Z,90.55
2017-05-03T02:38:11.562Z,90.45
2017-05-03T02:38:38.078Z,90.74
2017-05-03T02:39:04.254Z,90.26
2017-05-03T02:39:30.845Z,90.41
2017-05-03T02:39:56.959Z,89.94
2017-05-03T02:40:23.080Z,90.31
2017-05-03T02:40:49.649Z,90.26
2017-05-03T02:41:15.744Z,90.7
2017-05-03T02:41:42.344Z,90.6
2017-05-03T02:42:08.383Z,90.74
2017-05-03T02:42:37.728Z,90.74
2017-05-03T02:43:03.917Z,90.74
2017-05-03T02:43:30.064Z,90.41
2017-05-03T02:43:56.177Z,90.26
2017-05-03T02:44:22.338Z,90.17
2017-05-03T02:44:48.484Z,90.08
2017-05-03T02:45:14.624Z,89.79
2017-05-03T02:45:40.734Z,89.5
2017-05-03T02:46:06.829Z,89.69
2017-05-03T02:46:32.921Z,89.6
2017-05-03T02:46:59.053Z,89.6
2017-05-03T02:47:25.179Z,89.5
2017-05-03T02:47:51.328Z,89.69
2017-05-03T02:48:17.500Z,89.6
2017-05-03T02:48:43.691Z,89.4
2017-05-03T02:49:09.882Z,90.17
2017-05-03T02:49:35.978Z,89.89
2017-05-03T02:50:02.515Z,89.65
2017-05-03T02:50:28.618Z,90.36
2017-05-03T02:50:55.130Z,89.69
2017-05-03T02:51:21.220Z,89.79
2017-05-03T02:51:47.348Z,90.26
2017-05-03T02:52:13.912Z,90.6
2017-05-03T02:52:40.021Z,90.22
2017-05-03T02:53:06.619Z,90.26
2017-05-03T02:53:32.703Z,90.41
2017-05-03T02:53:58.916Z,90.26
2017-05-03T02:54:25.236Z,90.74
2017-05-03T02:54:51.350Z,90.84
2017-05-03T02:55:17.449Z,90.64
2017-05-03T02:55:44.197Z,90.64
2017-05-03T02:56:10.281Z,90.45
2017-05-03T02:56:37.025Z,90.45
2017-05-03T02:57:03.131Z,90.55
2017-05-03T02:57:29.245Z,89.89
2017-05-03T02:57:56.490Z,89.79
2017-05-03T02:58:22.595Z,90.36
2017-05-03T02:58:49.400Z,90.45
2017-05-03T02:59:15.475Z,90.45
2017-05-03T02:59:41.583Z,89.79
2017-05-03T03:00:07.969Z,90.36
2017-05-03T03:00:34.075Z,90.45
2017-05-03T03:01:00.164Z,90.36
2017-05-03T03:01:26.261Z,90.55
2017-05-03T03:01:52.365Z,90.79
2017-05-03T03:02:18.458Z,90.79
2017-05-03T03:02:44.546Z,90.6
2017-05-03T03:03:10.684Z,90.6
2017-05-03T03:03:36.872Z,90.5
2017-05-03T03:04:03.010Z,90.7
2017-05-03T03:04:29.201Z,90.79
2017-05-03T03:04:55.726Z,90.41
2017-05-03T03:05:21.832Z,90.6
2017-05-03T03:05:48.509Z,90.7
2017-05-03T03:06:14.599Z,90.6
2017-05-03T03:06:40.705Z,90.6
2017-05-03T03:07:06.859Z,90.6
2017-05-03T03:07:32.971Z,90.6
2017-05-03T03:07:59.131Z,90.7
2017-05-03T03:08:25.287Z,90.98
2017-05-03T03:08:51.424Z,91.17
2017-05-03T03:09:17.580Z,90.79
2017-05-03T03:09:43.713Z,90.89
2017-05-03T03:10:09.880Z,90.89
2017-05-03T03:10:35.975Z,91.08
2017-05-03T03:11:02.091Z,91.17
2017-05-03T03:11:28.204Z,90.98
2017-05-03T03:11:54.338Z,91.27
2017-05-03T03:12:20.438Z,90.79
2017-05-03T03:12:46.650Z,91.27
2017-05-03T03:13:12.808Z,91.27
2017-05-03T03:13:38.917Z,91.27
2017-05-03T03:14:05.468Z,91.17
2017-05-03T03:14:31.629Z,91.36
2017-05-03T03:14:57.766Z,91.27
2017-05-03T03:15:23.886Z,91.94
2017-05-03T03:15:49.983Z,92.41
2017-05-03T03:16:16.083Z,92.03
2017-05-03T03:16:42.189Z,92.13
2017-05-03T03:17:08.327Z,92.03
2017-05-03T03:17:34.865Z,92.13
2017-05-03T03:18:01.023Z,92.13
2017-05-03T03:18:27.544Z,92.13
2017-05-03T03:18:53.667Z,92.13
2017-05-03T03:19:19.825Z,91.84
2017-05-03T03:19:45.918Z,91.94
2017-05-03T03:20:12.056Z,92.13
2017-05-03T03:20:38.165Z,92.22
2017-05-03T03:21:04.260Z,92.03
2017-05-03T03:21:30.375Z,92.22
2017-05-03T03:21:56.853Z,92.32
2017-05-03T03:22:23.006Z,92.13
2017-05-03T03:22:49.095Z,92.22
2017-05-03T03:23:15.208Z,92.41
2017-05-03T03:23:41.330Z,92.41
2017-05-03T03:24:07.518Z,92.41
2017-05-03T03:24:33.664Z,92.89
2017-05-03T03:24:59.797Z,92.89
2017-05-03T03:25:26.024Z,92.6
2017-05-03T03:25:52.145Z,92.6
2017-05-03T03:26:18.251Z,92.41
2017-05-03T03:26:44.340Z,91.94
2017-05-03T03:27:10.502Z,92.32
2017-05-03T03:27:36.613Z,91.84
2017-05-03T03:28:02.795Z,91.74
2017-05-03T03:28:28.951Z,91.65
2017-05-03T03:28:55.421Z,91.55
2017-05-03T03:29:21.567Z,91.84
2017-05-03T03:29:47.727Z,91.94
2017-05-03T03:30:13.846Z,92.03
2017-05-03T03:30:39.958Z,91.94
2017-05-03T03:31:06.066Z,91.84
2017-05-03T03:31:32.187Z,92.03
2017-05-03T03:31:58.324Z,91.65
2017-05-03T03:32:24.809Z,91.74
2017-05-03T03:32:50.950Z,92.41
2017-05-03T03:33:17.081Z,92.5
2017-05-03T03:33:43.231Z,92.13
2017-05-03T03:34:09.346Z,92.03
2017-05-03T03:34:35.561Z,91.94
2017-05-03T03:35:01.799Z,92.13
2017-05-03T03:35:27.887Z,92.22
2017-05-03T03:35:54.152Z,91.94
2017-05-03T03:36:20.275Z,92.03
2017-05-03T03:36:46.387Z,92.03
2017-05-03T03:37:12.488Z,92.22
2017-05-03T03:37:38.590Z,92.22
2017-05-03T03:38:04.759Z,92.22
2017-05-03T03:38:31.304Z,92.13
2017-05-03T03:38:57.392Z,92.41
2017-05-03T03:39:23.552Z,92.32
2017-05-03T03:39:49.674Z,91.55
2017-05-03T03:40:15.762Z,91.46
2017-05-03T03:40:42.449Z,91.55
2017-05-03T03:41:08.582Z,91.74
2017-05-03T03:41:34.690Z,91.55
2017-05-03T03:42:00.951Z,91.6
2017-05-03T03:42:27.114Z,91.6
2017-05-03T03:42:53.202Z,91.22
2017-05-03T03:43:19.322Z,90.74
2017-05-03T03:43:45.474Z,91.13
2017-05-03T03:44:12.008Z,90.55
2017-05-03T03:44:38.111Z,90.6
2017-05-03T03:45:04.245Z,90.41
2017-05-03T03:45:31.104Z,90.12
2017-05-03T03:45:57.237Z,90.22
2017-05-03T03:46:23.324Z,90.31
2017-05-03T03:46:49.442Z,90.41
2017-05-03T03:47:15.576Z,90.41
2017-05-03T03:47:41.732Z,90.98
2017-05-03T03:48:07.821Z,91.17
2017-05-03T03:48:33.959Z,91.27
2017-05-03T03:49:00.133Z,91.36
2017-05-03T03:49:26.283Z,91.46
2017-05-03T03:49:52.889Z,91.65
2017-05-03T03:50:18.947Z,91.74
2017-05-03T03:50:45.079Z,92.03
2017-05-03T03:51:11.173Z,92.13
2017-05-03T03:51:37.262Z,92.13
2017-05-03T03:52:03.393Z,91.94
2017-05-03T03:52:29.891Z,91.84
2017-05-03T03:52:56.005Z,91.84
2017-05-03T03:53:22.162Z,91.94
2017-05-03T03:53:48.259Z,91.74
2017-05-03T03:54:14.375Z,91.84
2017-05-03T03:54:40.963Z,91.65
2017-05-03T03:55:07.082Z,92.13
2017-05-03T03:55:33.188Z,92.41
2017-05-03T03:56:00.455Z,92.22
2017-05-03T03:56:26.543Z,92.03
2017-05-03T03:56:52.648Z,92.6
2017-05-03T03:57:18.746Z,92.5
2017-05-03T03:57:44.863Z,92.89
2017-05-03T03:58:11.347Z,92.5
2017-05-03T03:58:37.509Z,92.6
2017-05-03T03:59:03.668Z,92.6
2017-05-03T03:59:30.292Z,92.69
2017-05-03T03:59:56.397Z,92.89
2017-05-03T04:00:23.303Z,92.32
2017-05-03T04:00:49.395Z,92.69
2017-05-03T04:01:15.507Z,92.32
2017-05-03T04:01:41.611Z,92.79
2017-05-03T04:02:07.715Z,92.41
2017-05-03T04:02:33.827Z,92.03
2017-05-03T04:03:00.481Z,91.84
2017-05-03T04:03:26.612Z,92.13
2017-05-03T04:03:52.699Z,92.03
2017-05-03T04:04:18.844Z,92.41
2017-05-03T04:04:45.003Z,92.41
2017-05-03T04:05:11.754Z,92.41
2017-05-03T04:05:37.870Z,92.32
2017-05-03T04:06:04.003Z,92.13
2017-05-03T04:06:30.152Z,92.03
2017-05-03T04:06:56.243Z,92.5
2017-05-03T04:07:22.403Z,92.13
2017-05-03T04:07:49.675Z,91.74
2017-05-03T04:08:15.865Z,92.41
2017-05-03T04:08:41.992Z,92.03
2017-05-03T04:09:08.208Z,91.84
2017-05-03T04:09:34.317Z,92.32
2017-05-03T04:10:00.788Z,92.41
2017-05-03T04:10:26.913Z,92.5
2017-05-03T04:10:53.003Z,92.6
2017-05-03T04:11:19.639Z,92.6
2017-05-03T04:11:45.742Z,92.6
2017-05-03T04:12:12.663Z,92.69
2017-05-03T04:12:38.735Z,92.5
2017-05-03T04:13:04.873Z,92.6
2017-05-03T04:13:31.465Z,92.32
2017-05-03T04:13:57.625Z,92.32
2017-05-03T04:14:23.765Z,92.13
2017-05-03T04:14:49.861Z,92.5
2017-05-03T04:15:15.993Z,92.5
2017-05-03T04:15:42.111Z,92.69
2017-05-03T04:16:08.369Z,92.6
2017-05-03T04:16:34.499Z,92.98
2017-05-03T04:17:01.116Z,92.41
2017-05-03T04:17:27.181Z,92.6
2017-05-03T04:17:53.294Z,92.79
2017-05-03T04:18:19.464Z,92.69
2017-05-03T04:18:45.622Z,92.79
2017-05-03T04:19:11.794Z,92.79
2017-05-03T04:19:38.037Z,93.08
2017-05-03T04:20:04.165Z,92.6
2017-05-03T04:20:30.287Z,92.89
2017-05-03T04:20:56.836Z,92.41
2017-05-03T04:21:22.966Z,92.89
2017-05-03T04:21:50.242Z,92.69
2017-05-03T04:22:16.357Z,92.5
2017-05-03T04:22:42.458Z,92.6
2017-05-03T04:23:08.546Z,92.6
2017-05-03T04:23:34.683Z,92.32
2017-05-03T04:24:00.804Z,92.6
2017-05-03T04:24:27.640Z,92.69
2017-05-03T04:24:53.774Z,92.89
2017-05-03T04:25:20.453Z,92.6
2017-05-03T04:25:46.475Z,92.6
2017-05-03T04:26:12.600Z,92.69
2017-05-03T04:26:38.736Z,92.6
2017-05-03T04:27:04.822Z,92.89
2017-05-03T04:27:30.945Z,93.22
2017-05-03T04:27:57.135Z,93.08
2017-05-03T04:28:23.303Z,93.74
2017-05-03T04:28:49.455Z,93.6
2017-05-03T04:29:15.946Z,93.27
2017-05-03T04:29:42.071Z,93.27
2017-05-03T04:30:08.555Z,93.51
2017-05-03T04:30:34.605Z,93.41
2017-05-03T04:31:00.729Z,93.46
2017-05-03T04:31:26.862Z,93.79
2017-05-03T04:31:53.003Z,93.65
2017-05-03T04:32:19.122Z,93.22
2017-05-03T04:32:46.210Z,93.46
2017-05-03T04:33:12.411Z,93.22
2017-05-03T04:33:38.524Z,93.6
2017-05-03T04:34:04.696Z,94.46
2017-05-03T04:34:30.819Z,93.93
2017-05-03T04:34:56.922Z,94.08
2017-05-03T04:35:23.062Z,93.89
2017-05-03T04:35:49.182Z,94.03
2017-05-03T04:36:15.728Z,94.27
2017-05-03T04:36:41.872Z,94.17
2017-05-03T04:37:07.961Z,94.17
2017-05-03T04:37:34.522Z,94.08
2017-05-03T04:38:00.643Z,94.27
2017-05-03T04:38:26.759Z,94.27
2017-05-03T04:38:52.889Z,94.37
2017-05-03T04:39:19.015Z,94.17
2017-05-03T04:39:45.136Z,94.37
2017-05-03T04:40:11.228Z,94.46
2017-05-03T04:40:37.317Z,94.17
2017-05-03T04:41:03.554Z,94.37
2017-05-03T04:41:29.676Z,94.37
2017-05-03T04:41:55.790Z,94.17
2017-05-03T04:42:22.225Z,94.17
2017-05-03T04:42:48.352Z,94.17
2017-05-03T04:43:14.554Z,94.32
2017-05-03T04:43:41.051Z,94.17
2017-05-03T04:44:07.238Z,94.27
2017-05-03T04:44:33.392Z,94.37
2017-05-03T04:44:59.520Z,94.17
2017-05-03T04:45:25.615Z,93.98
2017-05-03T04:45:51.718Z,93.98
2017-05-03T04:46:17.843Z,94.17
2017-05-03T04:46:43.959Z,94.46
2017-05-03T04:47:10.082Z,94.65
2017-05-03T04:47:36.188Z,94.37
2017-05-03T04:48:02.328Z,95.03
2017-05-03T04:48:28.980Z,94.93
2017-05-03T04:48:55.134Z,95.03
2017-05-03T04:49:21.391Z,95.03
2017-05-03T04:49:47.562Z,94.74
2017-05-03T04:50:13.695Z,94.65
2017-05-03T04:50:40.217Z,94.74
2017-05-03T04:51:06.306Z,94.74
2017-05-03T04:51:32.438Z,94.65
2017-05-03T04:51:59.025Z,95.12
2017-05-03T04:52:25.163Z,94.17
2017-05-03T04:52:51.268Z,94.17
2017-05-03T04:53:17.394Z,94.74
2017-05-03T04:53:43.557Z,94.65
2017-05-03T04:54:09.736Z,94.74
2017-05-03T04:54:35.867Z,94.74
2017-05-03T04:55:01.984Z,94.74
2017-05-03T04:55:28.106Z,94.46
2017-05-03T04:55:54.265Z,94.27
2017-05-03T04:56:20.408Z,94.56
2017-05-03T04:56:47.719Z,94.84
2017-05-03T04:57:13.808Z,94.84
2017-05-03T04:57:39.910Z,95.32
2017-05-03T04:58:06.415Z,95.03
2017-05-03T04:58:32.527Z,95.41
2017-05-03T04:58:59.121Z,94.74
2017-05-03T04:59:25.165Z,95.12
2017-05-03T04:59:51.309Z,94.84
2017-05-03T05:00:17.823Z,94.84
2017-05-03T05:00:44.037Z,95.32
2017-05-03T05:01:10.128Z,95.22
2017-05-03T05:01:36.502Z,94.93
2017-05-03T05:02:02.604Z,94.65
2017-05-03T05:02:28.705Z,95.03
2017-05-03T05:02:55.248Z,95.32
2017-05-03T05:03:21.336Z,95.22
2017-05-03T05:03:47.432Z,95.79
2017-05-03T05:04:13.847Z,95.79
2017-05-03T05:04:39.967Z,95.41
2017-05-03T05:05:06.656Z,95.03
2017-05-03T05:05:32.727Z,95.41
2017-05-03T05:05:58.823Z,95.32
2017-05-03T05:06:24.958Z,95.41
2017-05-03T05:06:51.063Z,95.03
2017-05-03T05:07:17.157Z,95.79
2017-05-03T05:07:43.256Z,95.6
2017-05-03T05:08:09.349Z,95.12
2017-05-03T05:08:35.438Z,95.12
2017-05-03T05:09:01.601Z,95.41
2017-05-03T05:09:27.749Z,95.12
2017-05-03T05:09:53.840Z,94.84
2017-05-03T05:10:19.970Z,94.93
2017-05-03T05:10:46.067Z,94.08
2017-05-03T05:11:12.158Z,94.46
2017-05-03T05:11:38.259Z,94.08
2017-05-03T05:12:04.392Z,94.65
2017-05-03T05:12:30.504Z,94.37
2017-05-03T05:12:56.655Z,94.27
2017-05-03T05:13:22.772Z,94.56
2017-05-03T05:13:48.925Z,94.65
2017-05-03T05:14:15.105Z,94.27
2017-05-03T05:14:41.199Z,94.27
2017-05-03T05:15:07.300Z,94.56
2017-05-03T05:15:33.401Z,94.37
2017-05-03T05:15:59.485Z,94.37
2017-05-03T05:16:25.585Z,94.65
2017-05-03T05:16:51.689Z,94.37
2017-05-03T05:17:17.803Z,94.93
2017-05-03T05:17:43.923Z,94.84
2017-05-03T05:18:10.054Z,95.12
2017-05-03T05:18:36.200Z,94.17
2017-05-03T05:19:02.356Z,94.74
2017-05-03T05:19:28.442Z,94.84
2017-05-03T05:19:54.591Z,95.03
2017-05-03T05:20:20.781Z,94.93
2017-05-03T05:20:46.872Z,94.93
2017-05-03T05:21:12.988Z,94.84
2017-05-03T05:21:39.091Z,94.93
2017-05-03T05:22:05.209Z,94.56
2017-05-03T05:22:31.297Z,94.27
2017-05-03T05:22:57.408Z,94.46
2017-05-03T05:23:23.502Z,94.74
2017-05-03T05:23:49.617Z,95.03
2017-05-03T05:24:15.743Z,95.03
2017-05-03T05:24:41.861Z,95.12
2017-05-03T05:25:07.966Z,94.65
2017-05-03T05:25:34.086Z,94.17
2017-05-03T05:26:00.201Z,94.46
2017-05-03T05:26:26.337Z,94.46
2017-05-03T05:26:52.432Z,94.84
2017-05-03T05:27:18.570Z,94.93
2017-05-03T05:27:44.702Z,94.84
2017-05-03T05:28:10.828Z,94.56
2017-05-03T05:28:36.985Z,94.56
2017-05-03T05:29:03.114Z,94.93
2017-05-03T05:29:29.247Z,94.93
2017-05-03T05:29:55.341Z,94.93
2017-05-03T05:30:21.435Z,95.03
2017-05-03T05:30:47.522Z,95.03
2017-05-03T05:31:13.630Z,95.03
2017-05-03T05:31:39.728Z,94.84
2017-05-03T05:32:05.821Z,94.56
2017-05-03T05:32:31.972Z,94.74
2017-05-03T05:32:58.107Z,94.84
2017-05-03T05:33:24.248Z,94.93
2017-05-03T05:33:50.347Z,94.84
2017-05-03T05:34:16.481Z,94.37
2017-05-03T05:34:42.594Z,94.27
2017-05-03T05:35:08.739Z,94.46
2017-05-03T05:35:34.869Z,94.46
2017-05-03T05:36:00.987Z,94.65
2017-05-03T05:36:27.076Z,94.56
2017-05-03T05:36:53.184Z,94.46
2017-05-03T05:37:19.280Z,94.27
2017-05-03T05:37:45.393Z,94.74
2017-05-03T05:38:11.498Z,95.03
2017-05-03T05:38:37.625Z,95.41
2017-05-03T05:39:03.742Z,95.41